Bruly Saint Martin, Louisiana
Current Conditions -  °F | °C
As of 10:55 AM on Friday 28 Nov 2014 (Local Time) from KL38 Reporting Station
Clear Clear  
Wind Chill: 56°   Ceiling: Unl
Heat Index: 56°   Visibility: 10mi
Dew Point: 35°   Wind: 5mph
Humidity: 47%   Direction: 40°NE
Pressure: 30.4"   Gusts: NA
Location:  30.0336°N, 91.0413°W
Report Text: KL38 281655Z AUTO 04004KT 10SM CLR 13/02 A3040 RMK AO2 T01310019
Loading
Personal Weather Stations






























Interactive Weather Map New forecast layout! Learn more

10-Day Weather Forecast

Advertisements
Track Severe Weather on mobile